Time;durP1;ratioP1;P1;durP2;ratioP2;P2;SDS_P1;SDS_P2;PMS_P1;PMS_P2;Temp;Humidity;BMP_temperature;BMP_pressure;BME280_temperature;BME280_humidity;BME280_pressure;Samples;Min_cycle;Max_cycle;Signal;HPM_P1;HPM_P2
2024/01/19 00:01:28;;;;;;;13.90;12.25;;;-2.10;1.00;;;;;;5091807;27;20313;-70
2024/01/19 00:03:56;;;;;;;15.10;12.73;;;-2.10;1.00;;;;;;5108990;28;20263;-69
2024/01/19 00:06:23;;;;;;;15.77;12.30;;;-2.10;1.00;;;;;;5108824;28;20249;-72
2024/01/19 00:08:52;;;;;;;15.13;12.30;;;-2.20;1.00;;;;;;5110704;28;20343;-69
2024/01/19 00:11:19;;;;;;;17.90;13.00;;;-2.10;1.00;;;;;;5108198;28;20319;-70
2024/01/19 00:13:46;;;;;;;15.57;11.98;;;-2.10;1.00;;;;;;5107593;28;20254;-72
2024/01/19 00:16:12;;;;;;;16.23;12.77;;;-2.20;1.00;;;;;;5108693;28;20293;-70
2024/01/19 00:18:39;;;;;;;17.10;11.63;;;-2.10;1.00;;;;;;5110047;28;20284;-70
2024/01/19 00:21:06;;;;;;;15.63;11.73;;;-2.10;1.00;;;;;;5108257;28;20235;-75
2024/01/19 00:23:33;;;;;;;14.80;11.85;;;-2.20;1.00;;;;;;5110788;28;20311;-71
2024/01/19 00:26:01;;;;;;;18.08;12.18;;;-2.20;1.00;;;;;;5107318;28;21066;-70
2024/01/19 00:28:28;;;;;;;13.65;10.85;;;-2.10;1.00;;;;;;5109774;28;20348;-77
2024/01/19 00:30:55;;;;;;;17.13;12.45;;;-2.10;1.00;;;;;;5111436;28;20239;-78
2024/01/19 00:33:22;;;;;;;16.20;11.55;;;-2.10;1.00;;;;;;5112423;28;20876;-78
2024/01/19 00:35:49;;;;;;;17.70;12.68;;;-2.10;1.00;;;;;;5101737;28;20324;-80
2024/01/19 00:38:16;;;;;;;14.65;11.75;;;-2.10;1.00;;;;;;5110776;28;20270;-78
2024/01/19 00:40:44;;;;;;;14.57;11.00;;;-2.10;1.00;;;;;;5107865;28;20239;-77
2024/01/19 00:43:12;;;;;;;14.43;11.35;;;-2.10;1.00;;;;;;5110490;28;20224;-77
2024/01/19 00:45:39;;;;;;;14.02;10.75;;;-2.10;1.00;;;;;;5110002;28;20338;-77
2024/01/19 00:48:06;;;;;;;13.52;10.15;;;-2.10;1.00;;;;;;5110805;28;20591;-79
2024/01/19 00:50:33;;;;;;;16.40;10.95;;;-2.10;1.00;;;;;;5106355;28;20301;-78
2024/01/19 00:53:00;;;;;;;15.35;11.43;;;-2.00;1.00;;;;;;5107900;28;20231;-79
2024/01/19 00:55:28;;;;;;;12.40;9.55;;;-2.00;1.00;;;;;;5110866;28;20326;-78
2024/01/19 00:57:56;;;;;;;14.82;10.95;;;-2.00;1.00;;;;;;5107016;28;20843;-77
2024/01/19 01:00:24;;;;;;;10.82;9.10;;;-2.00;1.00;;;;;;5113849;28;20727;-78
2024/01/19 01:02:51;;;;;;;14.00;9.45;;;-1.90;1.00;;;;;;5110907;28;20266;-78
2024/01/19 01:05:20;;;;;;;11.15;10.05;;;-1.90;1.00;;;;;;5111553;28;20274;-78
2024/01/19 01:07:47;;;;;;;16.45;9.15;;;-1.90;1.00;;;;;;5113262;28;20240;-78
2024/01/19 01:10:14;;;;;;;13.50;10.32;;;-1.90;1.00;;;;;;5110613;28;20312;-77
2024/01/19 01:12:42;;;;;;;12.68;9.80;;;-1.90;1.00;;;;;;5110179;28;20239;-77
2024/01/19 01:15:10;;;;;;;12.88;10.23;;;-1.90;1.00;;;;;;5114879;28;20342;-79
2024/01/19 01:17:38;;;;;;;10.63;8.88;;;-1.90;1.00;;;;;;5111725;28;20332;-77
2024/01/19 01:20:06;;;;;;;14.00;9.85;;;-1.90;1.00;;;;;;5110106;28;22983;-78
2024/01/19 01:22:33;;;;;;;11.98;10.60;;;-1.80;1.00;;;;;;5107027;28;20239;-79
2024/01/19 01:25:00;;;;;;;16.02;10.40;;;-1.90;1.00;;;;;;5108325;27;20277;-78
2024/01/19 01:27:27;;;;;;;13.50;10.30;;;-1.90;1.00;;;;;;5108039;28;20220;-80
2024/01/19 01:29:54;;;;;;;10.05;8.75;;;-1.90;1.00;;;;;;5106049;28;20339;-77
2024/01/19 01:32:21;;;;;;;13.75;10.40;;;-1.90;1.00;;;;;;5109580;28;20228;-77
2024/01/19 01:34:49;;;;;;;15.75;11.10;;;-1.90;1.00;;;;;;5106438;27;20664;-78
2024/01/19 01:37:16;;;;;;;12.55;10.43;;;-2.00;1.00;;;;;;5110210;28;20231;-79
2024/01/19 01:39:43;;;;;;;14.98;10.63;;;-2.00;1.00;;;;;;5106398;27;20263;-69
2024/01/19 01:42:10;;;;;;;13.55;11.40;;;-2.00;1.00;;;;;;5107319;28;20364;-72
2024/01/19 01:44:38;;;;;;;16.33;11.65;;;-2.00;1.00;;;;;;5109101;28;20301;-70
2024/01/19 01:47:05;;;;;;;15.82;10.98;;;-2.10;1.00;;;;;;5103540;28;20318;-71
2024/01/19 01:49:32;;;;;;;14.77;10.95;;;-2.10;1.00;;;;;;5105634;28;21063;-72
2024/01/19 01:52:01;;;;;;;12.60;11.30;;;-2.10;1.00;;;;;;5100747;28;21010;-72
2024/01/19 01:54:28;;;;;;;16.90;12.35;;;-2.20;1.00;;;;;;5106899;28;20403;-70
2024/01/19 01:56:56;;;;;;;18.00;12.40;;;-2.30;1.00;;;;;;5106847;28;20234;-71
2024/01/19 01:59:23;;;;;;;16.92;13.02;;;-2.30;1.00;;;;;;5107343;28;20245;-70
2024/01/19 02:01:50;;;;;;;17.67;12.00;;;-2.40;1.00;;;;;;5103602;28;20239;-70
2024/01/19 02:04:18;;;;;;;18.25;12.98;;;-2.40;1.00;;;;;;5105939;27;20258;-77
2024/01/19 02:06:44;;;;;;;14.77;13.13;;;-2.40;1.00;;;;;;5107118;27;20232;-73
2024/01/19 02:09:14;;;;;;;20.77;13.18;;;-2.40;1.00;;;;;;5106494;28;20312;-70
2024/01/19 02:11:41;;;;;;;16.90;12.68;;;-2.40;1.00;;;;;;5108070;28;20239;-72
2024/01/19 02:14:10;;;;;;;17.25;11.70;;;-2.50;1.00;;;;;;5107779;28;20715;-72
2024/01/19 02:16:37;;;;;;;15.57;11.52;;;-2.50;1.00;;;;;;5109859;28;20730;-71
2024/01/19 02:19:05;;;;;;;15.57;11.25;;;-2.50;1.00;;;;;;5106250;28;20238;-71
2024/01/19 02:21:32;;;;;;;15.27;11.60;;;-2.50;1.00;;;;;;5106401;28;20285;-71
2024/01/19 02:24:01;;;;;;;14.82;11.43;;;-2.50;1.00;;;;;;5106232;27;20778;-71
2024/01/19 02:26:32;;;;;;;15.32;11.68;;;-2.50;1.00;;;;;;5105068;28;20267;-71
2024/01/19 02:28:59;;;;;;;15.90;10.85;;;-2.50;1.00;;;;;;5104319;28;20280;-73
2024/01/19 02:31:26;;;;;;;14.55;11.35;;;-2.50;1.00;;;;;;5106652;27;20292;-73
2024/01/19 02:33:53;;;;;;;16.48;12.15;;;-2.50;1.00;;;;;;5104898;28;20306;-72
2024/01/19 02:36:20;;;;;;;15.60;11.27;;;-2.50;1.00;;;;;;5108180;28;20682;-71
2024/01/19 02:38:47;;;;;;;13.82;10.55;;;-2.60;1.00;;;;;;5103003;28;20235;-70
2024/01/19 02:41:14;;;;;;;18.05;10.88;;;-2.60;1.00;;;;;;5107031;28;20335;-72
2024/01/19 02:43:44;;;;;;;16.67;10.90;;;-2.60;1.00;;;;;;5101417;28;20334;-73
2024/01/19 02:46:15;;;;;;;12.80;10.25;;;-2.60;1.00;;;;;;5106359;28;20235;-70
2024/01/19 02:48:43;;;;;;;13.30;10.75;;;-2.60;1.00;;;;;;5104016;27;20319;-71
2024/01/19 02:51:10;;;;;;;14.75;10.45;;;-2.60;1.00;;;;;;5102720;27;20694;-71
2024/01/19 02:53:37;;;;;;;13.27;9.63;;;-2.60;1.00;;;;;;5101173;28;20334;-70
2024/01/19 02:56:04;;;;;;;14.00;9.48;;;-2.60;1.00;;;;;;5103921;28;20305;-71
2024/01/19 02:58:31;;;;;;;15.80;10.40;;;-2.60;1.00;;;;;;5104757;28;21008;-71
2024/01/19 03:01:00;;;;;;;14.45;10.10;;;-2.60;1.00;;;;;;5105087;28;20345;-70
2024/01/19 03:03:27;;;;;;;12.50;10.00;;;-2.60;1.00;;;;;;5105370;28;20241;-72
2024/01/19 03:05:54;;;;;;;12.43;9.15;;;-2.60;1.00;;;;;;5101384;27;20314;-73
2024/01/19 03:08:22;;;;;;;11.95;8.15;;;-2.50;1.00;;;;;;5105785;28;20373;-70
2024/01/19 03:10:49;;;;;;;10.52;9.15;;;-2.50;1.00;;;;;;5104666;28;20231;-71
2024/01/19 03:13:16;;;;;;;11.13;9.25;;;-2.50;1.00;;;;;;5106677;28;20328;-71
2024/01/19 03:15:43;;;;;;;9.27;8.27;;;-2.40;1.00;;;;;;5105618;28;20249;-70
2024/01/19 03:18:11;;;;;;;11.32;7.53;;;-2.30;1.00;;;;;;5092974;27;20235;-71
2024/01/19 03:20:38;;;;;;;11.18;8.32;;;-2.30;1.00;;;;;;5102839;28;20238;-71
2024/01/19 03:23:07;;;;;;;10.65;8.90;;;-2.30;1.00;;;;;;5102972;28;20322;-75
2024/01/19 03:25:34;;;;;;;11.02;7.63;;;-2.30;1.00;;;;;;5101659;27;20231;-70
2024/01/19 03:28:01;;;;;;;11.10;7.35;;;-2.20;1.00;;;;;;5108202;28;20266;-71
2024/01/19 03:30:28;;;;;;;11.07;8.25;;;-2.20;1.00;;;;;;5108151;27;20268;-70
2024/01/19 03:32:55;;;;;;;7.90;6.82;;;-2.20;1.00;;;;;;5103836;28;21043;-70
2024/01/19 03:35:25;;;;;;;11.40;7.60;;;-2.20;1.00;;;;;;5106304;27;20235;-70
2024/01/19 03:37:52;;;;;;;10.95;7.88;;;-2.20;1.00;;;;;;5105196;28;20239;-72
2024/01/19 03:40:21;;;;;;;13.57;8.88;;;-2.20;1.00;;;;;;5104440;28;20745;-73
2024/01/19 03:42:48;;;;;;;11.15;7.05;;;-2.10;1.00;;;;;;5100244;28;20915;-70
2024/01/19 03:45:15;;;;;;;7.07;5.75;;;-2.10;1.00;;;;;;5108506;28;20235;-71
2024/01/19 03:47:43;;;;;;;12.48;7.00;;;-2.00;1.00;;;;;;5106728;28;20242;-71
2024/01/19 03:50:10;;;;;;;8.18;5.70;;;-2.00;1.00;;;;;;5109592;28;20232;-71
2024/01/19 03:52:39;;;;;;;8.00;5.93;;;-2.00;1.00;;;;;;5108739;28;20324;-72
2024/01/19 03:55:06;;;;;;;7.97;6.50;;;-1.90;1.00;;;;;;5106360;27;20358;-73
2024/01/19 03:57:33;;;;;;;9.00;6.75;;;-2.00;1.00;;;;;;5107436;28;20300;-70
2024/01/19 04:00:00;;;;;;;6.57;5.88;;;-1.90;1.00;;;;;;5109045;28;20235;-76
2024/01/19 04:02:26;;;;;;;8.48;5.80;;;-1.90;1.00;;;;;;5111953;27;20357;-76
2024/01/19 04:04:53;;;;;;;7.63;5.75;;;-1.90;1.00;;;;;;5109664;28;20270;-76
2024/01/19 04:07:20;;;;;;;9.65;5.85;;;-1.90;1.00;;;;;;5112817;28;20251;-75
2024/01/19 04:09:49;;;;;;;10.35;5.70;;;-1.90;1.00;;;;;;5112756;28;20263;-76
2024/01/19 04:12:18;;;;;;;11.02;5.97;;;-1.80;1.00;;;;;;5113820;28;20232;-78
2024/01/19 04:14:46;;;;;;;6.40;5.80;;;-1.70;1.00;;;;;;5113915;27;20245;-78
2024/01/19 04:17:13;;;;;;;9.32;4.70;;;-1.70;1.00;;;;;;5111818;28;20231;-76
2024/01/19 04:19:41;;;;;;;7.32;5.50;;;-1.60;1.00;;;;;;5112489;28;20749;-76
2024/01/19 04:22:08;;;;;;;7.88;5.20;;;-1.60;1.00;;;;;;5109005;27;20291;-77
2024/01/19 04:24:34;;;;;;;10.55;5.10;;;-1.50;1.00;;;;;;5112574;28;20231;-77
2024/01/19 04:27:05;;;;;;;8.70;4.75;;;-1.40;1.00;;;;;;5111281;28;20324;-76
2024/01/19 04:29:32;;;;;;;8.75;5.13;;;-1.30;1.00;;;;;;5115950;28;20734;-76
2024/01/19 04:32:00;;;;;;;4.50;3.95;;;-1.20;1.00;;;;;;5111695;28;20362;-77
2024/01/19 04:34:27;;;;;;;6.35;4.40;;;-1.10;1.00;;;;;;5111307;28;20322;-75
2024/01/19 04:36:54;;;;;;;8.52;5.45;;;-1.10;1.00;;;;;;5113483;28;20548;-76
2024/01/19 04:39:21;;;;;;;6.50;4.97;;;-1.00;1.00;;;;;;5111289;28;20230;-75
2024/01/19 04:41:48;;;;;;;4.97;4.47;;;-1.00;1.00;;;;;;5108433;28;20306;-76
2024/01/19 04:44:16;;;;;;;4.90;4.45;;;-1.00;1.00;;;;;;5110452;28;20239;-77
2024/01/19 04:46:43;;;;;;;7.20;4.75;;;-0.90;1.00;;;;;;5111334;27;20671;-74
2024/01/19 04:49:11;;;;;;;5.70;5.07;;;-0.90;1.00;;;;;;5108341;28;20239;-76
2024/01/19 04:51:38;;;;;;;7.60;4.00;;;-0.90;1.00;;;;;;5111103;28;20301;-77
2024/01/19 04:54:05;;;;;;;6.35;4.20;;;-0.80;1.00;;;;;;5113264;27;20232;-75
2024/01/19 04:56:33;;;;;;;6.80;4.28;;;-0.80;1.00;;;;;;5113702;28;20949;-77
2024/01/19 04:59:00;;;;;;;5.65;4.35;;;-0.80;1.00;;;;;;5111026;28;20245;-75
2024/01/19 05:01:28;;;;;;;4.45;3.90;;;-0.80;1.00;;;;;;5111306;28;20232;-77
2024/01/19 05:03:55;;;;;;;6.93;3.92;;;-0.80;1.00;;;;;;5107120;27;20232;-76
2024/01/19 05:06:22;;;;;;;7.07;5.05;;;-0.80;1.00;;;;;;5109088;27;21006;-77
2024/01/19 05:08:49;;;;;;;6.75;4.60;;;-0.70;1.00;;;;;;5110505;27;20313;-76
2024/01/19 05:11:16;;;;;;;11.50;4.93;;;-0.80;1.00;;;;;;5107220;27;20978;-77
2024/01/19 05:13:43;;;;;;;8.65;4.55;;;-0.80;1.00;;;;;;5110550;27;20271;-76
2024/01/19 05:16:11;;;;;;;4.40;4.00;;;-0.80;1.00;;;;;;5111491;27;20232;-76
2024/01/19 05:18:40;;;;;;;5.88;4.38;;;-0.80;1.00;;;;;;5112734;27;20246;-78
2024/01/19 05:21:07;;;;;;;7.20;4.55;;;-0.70;1.00;;;;;;5110403;27;20346;-75
2024/01/19 05:23:34;;;;;;;7.20;4.63;;;-0.80;1.00;;;;;;5108608;27;20216;-78
2024/01/19 05:26:04;;;;;;;4.35;3.92;;;-0.70;1.00;;;;;;5109841;27;20240;-74
2024/01/19 05:28:32;;;;;;;9.18;4.50;;;-0.70;1.00;;;;;;5110588;28;20234;-77
2024/01/19 05:30:59;;;;;;;4.38;3.55;;;-0.70;1.00;;;;;;5105807;27;20232;-76
2024/01/19 05:33:26;;;;;;;4.88;3.60;;;-0.70;1.00;;;;;;5107414;27;20243;-76
2024/01/19 05:35:54;;;;;;;8.18;3.40;;;-0.70;1.00;;;;;;5108750;27;20788;-75
2024/01/19 05:38:21;;;;;;;7.32;5.95;;;-0.70;1.00;;;;;;5110932;27;20955;-76
2024/01/19 05:40:48;;;;;;;6.30;3.60;;;-0.60;1.00;;;;;;5105813;27;20702;-77
2024/01/19 05:43:15;;;;;;;5.65;3.90;;;-0.60;1.00;;;;;;5105198;28;20235;-77
2024/01/19 05:45:41;;;;;;;5.03;3.25;;;-0.60;1.00;;;;;;5103744;28;20317;-76
2024/01/19 05:48:08;;;;;;;5.15;3.75;;;-0.60;1.00;;;;;;5105621;28;20247;-76
2024/01/19 05:50:35;;;;;;;4.80;3.05;;;-0.60;1.00;;;;;;5108574;28;20318;-76
2024/01/19 05:53:04;;;;;;;7.30;3.38;;;-0.60;1.00;;;;;;5105832;28;20244;-76
2024/01/19 05:55:31;;;;;;;3.50;3.20;;;-0.70;1.00;;;;;;5109865;28;20829;-76
2024/01/19 05:57:58;;;;;;;8.35;4.25;;;-0.60;1.00;;;;;;5107545;27;20235;-77
2024/01/19 06:00:25;;;;;;;5.20;4.60;;;-0.60;1.00;;;;;;5107519;28;20281;-74
2024/01/19 06:02:52;;;;;;;3.50;3.10;;;-0.60;1.00;;;;;;5083284;28;20240;-76
2024/01/19 06:05:19;;;;;;;5.40;2.97;;;-0.60;1.00;;;;;;5097346;28;20337;-77
2024/01/19 06:07:46;;;;;;;4.80;3.10;;;-0.70;1.00;;;;;;5107031;28;20239;-74
2024/01/19 06:10:18;;;;;;;7.90;3.70;;;-0.60;1.00;;;;;;5106373;28;20281;-79
2024/01/19 06:12:46;;;;;;;6.63;4.95;;;-0.70;1.00;;;;;;5102822;28;20734;-77
2024/01/19 06:15:13;;;;;;;6.53;4.03;;;-0.70;1.00;;;;;;5105920;28;20239;-76
2024/01/19 06:17:40;;;;;;;5.20;3.35;;;-0.70;1.00;;;;;;5106991;28;20296;-76
2024/01/19 06:20:08;;;;;;;4.85;3.67;;;-0.70;1.00;;;;;;5106914;28;20267;-72
2024/01/19 06:22:37;;;;;;;5.28;3.35;;;-0.70;1.00;;;;;;5106261;28;20242;-74
2024/01/19 06:25:06;;;;;;;6.18;3.63;;;-0.80;1.00;;;;;;5106842;28;20294;-73
2024/01/19 06:27:34;;;;;;;4.13;3.50;;;-0.80;1.00;;;;;;5108476;28;20255;-74
2024/01/19 06:30:02;;;;;;;7.88;3.70;;;-0.80;1.00;;;;;;5107346;28;20240;-75
2024/01/19 06:32:32;;;;;;;5.60;3.88;;;-0.90;1.00;;;;;;5109046;28;20350;-77
2024/01/19 06:34:59;;;;;;;4.90;3.60;;;-0.90;1.00;;;;;;5108016;28;20241;-75
2024/01/19 06:37:26;;;;;;;4.05;3.40;;;-0.90;1.00;;;;;;5107136;27;20818;-71
2024/01/19 06:39:54;;;;;;;7.22;3.67;;;-0.90;1.00;;;;;;5106518;27;20243;-73
2024/01/19 06:42:21;;;;;;;3.33;2.95;;;-0.90;1.00;;;;;;5107695;27;20611;-71
2024/01/19 06:44:49;;;;;;;4.50;4.00;;;-0.80;1.00;;;;;;5105927;27;20262;-70
2024/01/19 06:47:20;;;;;;;5.68;4.75;;;-0.80;1.00;;;;;;5108280;27;20236;-70
2024/01/19 06:49:47;;;;;;;4.85;3.13;;;-0.80;1.00;;;;;;5089131;28;20243;-75
2024/01/19 06:52:15;;;;;;;5.32;3.63;;;-0.80;1.00;;;;;;5106512;27;20235;-74
2024/01/19 06:54:42;;;;;;;6.65;4.53;;;-0.80;1.00;;;;;;5109667;27;20239;-71
2024/01/19 06:57:09;;;;;;;6.55;5.15;;;-0.70;1.00;;;;;;5088114;28;20719;-71
2024/01/19 06:59:36;;;;;;;6.80;3.80;;;-0.70;1.00;;;;;;5106647;27;21067;-71
2024/01/19 07:02:05;;;;;;;7.10;3.83;;;-0.60;1.00;;;;;;5109933;27;21034;-71
2024/01/19 07:04:32;;;;;;;5.22;3.88;;;-0.60;1.00;;;;;;5105622;28;20848;-72
2024/01/19 07:06:59;;;;;;;5.93;3.90;;;-0.50;1.00;;;;;;5097071;27;20238;-74
2024/01/19 07:09:28;;;;;;;5.07;3.70;;;-0.50;1.00;;;;;;5105160;28;20239;-73
2024/01/19 07:11:55;;;;;;;5.20;3.70;;;-0.40;1.00;;;;;;5104368;28;20240;-73
2024/01/19 07:14:24;;;;;;;4.22;3.20;;;-0.40;1.00;;;;;;5086792;27;20236;-73
2024/01/19 07:16:51;;;;;;;7.78;4.57;;;-0.40;1.00;;;;;;5099232;27;20235;-73
2024/01/19 07:19:20;;;;;;;8.75;4.05;;;-0.40;1.00;;;;;;5110635;27;20719;-73
2024/01/19 07:21:47;;;;;;;3.90;3.30;;;-0.30;1.00;;;;;;5105192;27;20340;-72
2024/01/19 07:24:14;;;;;;;5.10;3.75;;;-0.30;1.00;;;;;;5107659;28;20339;-73
2024/01/19 07:26:41;;;;;;;5.57;4.18;;;-0.20;1.00;;;;;;5104414;27;20297;-75
2024/01/19 07:29:09;;;;;;;7.97;4.55;;;-0.20;1.00;;;;;;5107372;27;20287;-78
2024/01/19 07:31:37;;;;;;;6.43;4.00;;;-0.10;1.00;;;;;;5109633;27;20314;-78
2024/01/19 07:34:05;;;;;;;4.18;3.85;;;-0.10;1.00;;;;;;5106903;27;20239;-78
2024/01/19 07:36:33;;;;;;;8.93;4.60;;;-0.10;1.00;;;;;;5107768;27;20266;-74
2024/01/19 07:39:00;;;;;;;7.28;4.45;;;0.00;1.00;;;;;;5109906;28;20343;-78
2024/01/19 07:41:27;;;;;;;9.32;5.20;;;0.00;1.00;;;;;;5116082;27;20247;-77
2024/01/19 07:43:54;;;;;;;12.82;4.35;;;0.10;1.00;;;;;;5113362;27;20239;-79
2024/01/19 07:46:21;;;;;;;9.60;4.45;;;0.10;1.00;;;;;;5115399;27;20236;-79
2024/01/19 07:48:48;;;;;;;6.40;4.45;;;0.10;1.00;;;;;;5098795;28;20231;-75
2024/01/19 07:51:15;;;;;;;6.50;4.13;;;0.10;1.00;;;;;;5113729;27;20282;-78
2024/01/19 07:53:45;;;;;;;5.93;4.18;;;0.20;1.00;;;;;;5118910;27;20354;-77
2024/01/19 07:56:12;;;;;;;6.53;3.90;;;0.20;1.00;;;;;;5111749;27;21006;-78
2024/01/19 07:58:38;;;;;;;7.82;4.57;;;0.30;1.00;;;;;;5111449;27;20235;-77
2024/01/19 08:01:06;;;;;;;5.93;4.53;;;0.30;1.00;;;;;;5115343;27;20238;-77
2024/01/19 08:03:33;;;;;;;6.47;4.70;;;0.30;1.00;;;;;;5112401;27;20301;-79
2024/01/19 08:06:00;;;;;;;4.75;3.85;;;0.40;1.00;;;;;;5110519;27;20699;-77
2024/01/19 08:08:29;;;;;;;9.05;4.70;;;0.40;1.00;;;;;;5118838;28;20231;-77
2024/01/19 08:10:57;;;;;;;9.55;4.82;;;0.40;1.00;;;;;;5108569;27;20234;-76
2024/01/19 08:13:24;;;;;;;7.50;5.10;;;0.50;1.00;;;;;;5114206;27;20965;-78
2024/01/19 08:15:52;;;;;;;5.72;4.75;;;0.50;1.00;;;;;;5114695;28;20239;-77
2024/01/19 08:18:19;;;;;;;8.38;5.35;;;0.60;1.00;;;;;;5114927;28;20324;-78
2024/01/19 08:20:46;;;;;;;6.85;5.05;;;0.60;1.00;;;;;;5114022;28;20226;-76
2024/01/19 08:23:13;;;;;;;6.95;5.55;;;0.70;1.00;;;;;;5112974;27;20258;-78
2024/01/19 08:25:40;;;;;;;5.25;4.65;;;0.80;1.00;;;;;;5111012;27;21069;-77
2024/01/19 08:28:08;;;;;;;7.15;5.90;;;1.00;1.00;;;;;;5113253;28;20235;-77
2024/01/19 08:30:35;;;;;;;6.57;4.82;;;1.10;1.00;;;;;;5111364;27;20268;-77
2024/01/19 08:33:02;;;;;;;6.15;4.90;;;1.20;1.00;;;;;;5110816;27;20235;-79
2024/01/19 08:35:32;;;;;;;6.30;5.45;;;1.20;1.00;;;;;;5114313;27;20255;-77
2024/01/19 08:37:59;;;;;;;9.43;5.55;;;1.20;1.00;;;;;;5115780;28;20284;-78
2024/01/19 08:40:26;;;;;;;8.43;6.40;;;1.30;1.00;;;;;;5111728;27;20231;-81
2024/01/19 08:42:53;;;;;;;11.85;5.68;;;1.40;1.00;;;;;;5112796;27;20293;-79
2024/01/19 08:45:23;;;;;;;9.98;6.13;;;1.40;1.00;;;;;;5109750;28;21193;-77
2024/01/19 08:47:50;;;;;;;11.63;5.70;;;1.40;1.00;;;;;;5105781;27;20238;-79
2024/01/19 08:50:17;;;;;;;7.00;5.85;;;1.40;1.00;;;;;;5114625;27;20231;-81
2024/01/19 08:52:44;;;;;;;9.23;5.80;;;1.30;1.00;;;;;;5114473;27;20308;-79
2024/01/19 08:55:11;;;;;;;6.70;5.68;;;1.40;1.00;;;;;;5104447;27;20239;-78
2024/01/19 08:57:38;;;;;;;11.50;7.35;;;1.30;1.00;;;;;;5114039;27;20227;-80
2024/01/19 09:00:07;;;;;;;9.20;6.78;;;1.30;1.00;;;;;;5112737;27;20239;-76
2024/01/19 09:02:35;;;;;;;7.82;6.22;;;1.30;1.00;;;;;;5112344;27;20240;-80
2024/01/19 09:05:02;;;;;;;8.57;6.53;;;1.20;1.00;;;;;;5115071;27;20261;-78
2024/01/19 09:07:30;;;;;;;7.80;5.75;;;1.30;1.00;;;;;;5112044;27;20992;-81
2024/01/19 09:09:57;;;;;;;11.02;5.80;;;1.20;1.00;;;;;;5113530;27;20271;-80
2024/01/19 09:12:24;;;;;;;8.25;6.15;;;1.30;1.00;;;;;;5112990;28;20234;-80
2024/01/19 09:14:51;;;;;;;9.20;6.00;;;1.30;1.00;;;;;;5112782;27;20250;-79
2024/01/19 09:17:18;;;;;;;10.45;6.50;;;1.20;1.00;;;;;;5094927;28;20276;-81
2024/01/19 09:19:47;;;;;;;8.52;5.80;;;1.30;1.00;;;;;;5094429;28;20322;-79
2024/01/19 09:22:14;;;;;;;11.10;6.78;;;1.40;1.00;;;;;;5112635;28;20235;-79
2024/01/19 09:24:49;;;;;;;9.77;6.90;;;1.60;1.00;;;;;;5112395;27;20453;-78
2024/01/19 09:27:16;;;;;;;9.05;6.80;;;1.70;1.00;;;;;;5106456;27;21894;-77
2024/01/19 09:29:43;;;;;;;9.40;6.55;;;1.70;1.00;;;;;;5113905;27;20347;-81
2024/01/19 09:32:12;;;;;;;7.22;5.93;;;1.70;1.00;;;;;;5111338;27;20240;-80
2024/01/19 09:34:42;;;;;;;8.02;6.32;;;1.80;1.00;;;;;;5110660;27;20232;-79
2024/01/19 09:37:10;;;;;;;6.95;5.93;;;1.80;1.00;;;;;;5112172;27;20299;-80
2024/01/19 09:39:37;;;;;;;7.18;5.95;;;2.20;1.00;;;;;;5109822;28;20243;-80
2024/01/19 09:42:09;;;;;;;8.18;7.05;;;3.00;1.00;;;;;;5107697;27;20239;-79
2024/01/19 09:44:36;;;;;;;9.63;6.65;;;3.30;1.00;;;;;;5109732;27;20287;-79
2024/01/19 09:47:21;;;;;;;7.50;6.70;;;3.60;1.00;;;;;;5110365;27;20258;-81
2024/01/19 09:50:03;;;;;;;7.22;6.47;;;3.90;1.00;;;;;;5102460;28;20243;-73
2024/01/19 09:52:48;;;;;;;8.20;7.20;;;4.00;1.00;;;;;;5111315;27;20258;-74
2024/01/19 09:55:16;;;;;;;8.55;6.00;;;3.90;1.00;;;;;;5106481;27;20255;-73
2024/01/19 09:57:46;;;;;;;8.15;6.25;;;3.70;1.00;;;;;;5108762;27;20236;-72
2024/01/19 10:00:14;;;;;;;8.50;6.22;;;3.50;1.00;;;;;;5105436;27;20319;-72
2024/01/19 10:02:46;;;;;;;7.40;5.90;;;3.40;1.00;;;;;;5108620;27;20247;-71
2024/01/19 10:05:14;;;;;;;8.43;6.05;;;3.50;1.00;;;;;;5109928;27;20239;-71
2024/01/19 10:07:44;;;;;;;10.23;6.20;;;3.80;1.00;;;;;;5108437;27;20235;-72
2024/01/19 10:10:11;;;;;;;8.43;6.95;;;3.90;1.00;;;;;;5107120;27;20266;-71
2024/01/19 10:12:39;;;;;;;8.05;5.90;;;3.90;1.00;;;;;;5108529;27;20235;-72
2024/01/19 10:15:09;;;;;;;7.75;6.15;;;4.30;1.00;;;;;;5106690;27;20800;-71
2024/01/19 10:17:37;;;;;;;9.00;6.07;;;4.60;1.00;;;;;;5108222;27;20296;-72
2024/01/19 10:20:06;;;;;;;6.57;5.18;;;4.20;1.00;;;;;;5105035;27;20236;-75
2024/01/19 10:22:34;;;;;;;9.48;6.25;;;3.90;1.00;;;;;;5109276;27;20227;-73
2024/01/19 10:25:08;;;;;;;9.52;5.80;;;3.70;1.00;;;;;;5108626;27;20246;-73
2024/01/19 10:27:44;;;;;;;7.35;6.03;;;3.50;1.00;;;;;;5107215;27;21113;-70
2024/01/19 10:30:15;;;;;;;7.45;6.00;;;3.90;1.00;;;;;;5108676;28;20317;-75
2024/01/19 10:32:43;;;;;;;9.13;6.30;;;4.90;1.00;;;;;;5105143;28;20344;-72
2024/01/19 10:35:14;;;;;;;11.13;6.90;;;5.70;1.00;;;;;;5109691;28;20243;-70
2024/01/19 10:37:41;;;;;;;9.65;6.32;;;6.00;1.00;;;;;;5108077;27;20761;-73
2024/01/19 10:40:21;;;;;;;8.23;6.68;;;5.70;1.00;;;;;;5108120;28;20267;-76
2024/01/19 10:42:50;;;;;;;6.55;5.70;;;5.80;1.00;;;;;;5108096;28;21020;-74
2024/01/19 10:45:22;;;;;;;8.23;6.35;;;5.90;1.00;;;;;;5108212;28;20243;-72
2024/01/19 10:47:51;;;;;;;7.18;6.32;;;5.30;1.00;;;;;;5109800;27;20263;-71
2024/01/19 10:50:19;;;;;;;9.40;6.80;;;5.20;1.00;;;;;;5108203;27;20388;-73
2024/01/19 10:52:48;;;;;;;8.63;6.45;;;5.90;1.00;;;;;;5106297;27;20240;-70
2024/01/19 10:55:21;;;;;;;7.10;5.82;;;6.50;1.00;;;;;;5106068;28;20329;-70
2024/01/19 10:57:51;;;;;;;8.32;6.55;;;6.60;1.00;;;;;;5106819;28;20383;-75
2024/01/19 11:00:23;;;;;;;7.88;6.70;;;6.30;1.00;;;;;;5107439;28;20236;-79
2024/01/19 11:02:52;;;;;;;8.25;6.22;;;6.20;1.00;;;;;;5106972;28;20790;-77
2024/01/19 11:05:20;;;;;;;9.85;6.63;;;6.10;1.00;;;;;;5104428;28;20270;-76
2024/01/19 11:07:48;;;;;;;8.77;5.53;;;6.00;1.00;;;;;;5106007;27;20727;-78
2024/01/19 11:10:15;;;;;;;7.43;6.30;;;5.80;1.00;;;;;;5104860;28;21303;-78
2024/01/19 11:12:48;;;;;;;8.23;7.03;;;5.80;1.00;;;;;;5110667;28;20432;-78
2024/01/19 11:15:29;;;;;;;9.77;6.13;;;6.10;1.00;;;;;;5109638;27;20266;-77
2024/01/19 11:18:01;;;;;;;7.65;5.55;;;6.80;1.00;;;;;;5109839;28;20239;-76
2024/01/19 11:20:31;;;;;;;9.95;6.60;;;6.90;1.00;;;;;;5111876;27;20619;-76
2024/01/19 11:22:59;;;;;;;7.50;6.00;;;6.90;1.00;;;;;;5109367;27;20263;-76
2024/01/19 11:25:56;;;;;;;9.40;6.95;;;6.70;1.00;;;;;;5113180;27;20239;-76
2024/01/19 11:28:38;;;;;;;11.45;9.75;;;6.40;1.00;;;;;;5097259;28;20263;-76
2024/01/19 11:31:15;;;;;;;6.97;6.25;;;6.20;1.00;;;;;;5110867;28;20728;-76
2024/01/19 11:33:43;;;;;;;7.13;6.43;;;6.00;1.00;;;;;;5111990;27;20243;-77
2024/01/19 11:36:10;;;;;;;6.55;5.95;;;5.90;1.00;;;;;;5108270;28;20246;-78
2024/01/19 11:38:45;;;;;;;6.88;6.13;;;6.30;1.00;;;;;;5107321;28;20306;-75
2024/01/19 11:41:50;;;;;;;8.02;5.72;;;6.90;1.00;;;;;;5109760;27;20283;-77
2024/01/19 11:44:45;;;;;;;6.93;6.05;;;7.00;1.00;;;;;;5110229;28;20708;-78
2024/01/19 11:47:39;;;;;;;7.90;6.80;;;7.10;1.00;;;;;;5108119;28;20246;-77
2024/01/19 11:50:07;;;;;;;8.05;6.40;;;7.00;1.00;;;;;;5094753;27;20250;-77
2024/01/19 11:52:41;;;;;;;11.02;6.75;;;7.20;1.00;;;;;;5111788;28;20316;-79
2024/01/19 11:55:43;;;;;;;7.65;6.82;;;7.30;1.00;;;;;;5106234;27;20241;-75
2024/01/19 11:58:34;;;;;;;9.15;6.55;;;7.50;1.00;;;;;;5090148;28;20346;-76
2024/01/19 12:01:04;;;;;;;7.47;6.23;;;8.20;1.00;;;;;;5109871;27;20272;-78
2024/01/19 12:03:35;;;;;;;9.57;7.03;;;8.00;1.00;;;;;;5109776;28;21005;-76
2024/01/19 12:06:04;;;;;;;9.77;6.77;;;8.00;1.00;;;;;;5112583;27;20522;-78
2024/01/19 12:08:31;;;;;;;6.70;5.70;;;8.10;1.00;;;;;;5107375;28;20449;-78
2024/01/19 12:11:18;;;;;;;7.88;6.78;;;8.50;1.00;;;;;;5105865;28;20547;-73
2024/01/19 12:13:48;;;;;;;8.70;5.83;;;9.10;1.00;;;;;;5088698;28;20243;-73
2024/01/19 12:16:20;;;;;;;5.97;5.37;;;9.50;1.00;;;;;;5107303;27;20573;-76
2024/01/19 12:18:48;;;;;;;8.80;5.30;;;9.80;1.00;;;;;;5109155;27;20490;-74
2024/01/19 12:21:16;;;;;;;6.07;5.57;;;9.50;1.00;;;;;;5109675;28;20464;-72
2024/01/19 12:23:46;;;;;;;5.83;5.20;;;9.50;1.00;;;;;;5108941;27;20504;-76
2024/01/19 12:26:13;;;;;;;8.77;5.60;;;9.90;1.00;;;;;;5107052;28;20484;-74
2024/01/19 12:28:40;;;;;;;6.10;5.50;;;9.80;1.00;;;;;;5104642;28;20969;-73
2024/01/19 12:31:34;;;;;;;7.17;6.00;;;9.60;1.00;;;;;;5105434;28;20462;-74
2024/01/19 12:34:11;;;;;;;6.77;5.67;;;9.40;1.00;;;;;;5108978;28;20541;-72
2024/01/19 12:36:39;;;;;;;5.77;4.60;;;8.60;1.00;;;;;;5108210;27;20482;-72
2024/01/19 12:39:11;;;;;;;6.43;5.13;;;8.10;1.00;;;;;;5109252;28;20471;-76
2024/01/19 12:41:38;;;;;;;9.27;5.00;;;7.80;1.00;;;;;;5109820;27;21132;-74
2024/01/19 12:44:05;;;;;;;6.60;5.18;;;7.70;1.00;;;;;;5104237;28;20255;-74
2024/01/19 12:46:33;;;;;;;8.70;5.30;;;7.90;1.00;;;;;;5105415;28;20439;-74
2024/01/19 12:49:02;;;;;;;6.07;5.13;;;7.90;1.00;;;;;;5106014;28;20329;-75
2024/01/19 12:51:29;;;;;;;9.47;6.00;;;8.90;1.00;;;;;;5107542;27;20565;-73
2024/01/19 12:53:57;;;;;;;6.10;4.73;;;9.30;1.00;;;;;;5104128;27;20473;-73
2024/01/19 12:56:27;;;;;;;5.33;4.37;;;8.90;1.00;;;;;;5106277;28;21271;-73
2024/01/19 12:59:05;;;;;;;6.90;5.45;;;8.00;1.00;;;;;;5106062;27;20588;-72
2024/01/19 13:01:34;;;;;;;6.80;4.53;;;8.10;1.00;;;;;;5108279;28;20370;-72
2024/01/19 13:04:01;;;;;;;12.70;6.15;;;8.20;1.00;;;;;;5107222;28;20458;-76